首页
METAR-TAF:

METAR-TAF

机场 :

卡昂, 法国

纬度: 49-11N, 经度: 000-27W, 海拔: 78米

当前天气观测

该预报发布于36分钟前的17:30 UTC
风速6节,风向东南
温度 4°C
湿度 93%
气压 1016 hPa
能见度10公里或以上
1500米以下无云,无积雨云

METAR: LFRK 191730Z AUTO 14006KT CAVOK 04/03 Q1016 NOSIG

时间: 19:06 (18:06 UTC)

预报

该预报发布于4小时和6分钟前的14:00 UTC
预报有效从19日的 15点(UTC)到 19日的 24点(UTC)
风速10节,风向南转南东
能见度10公里或以上
1500米以下无云,无积雨云

TAF: LFRK 191400Z 1915/1924 16010KT CAVOK

超过4000个机场的气象观测和天气预报(METAR&TAF报告)。

可查询的气象台以黄色和红色小点在地图上表示。

将鼠标移到小点上方,可查看气象台名称。

然后点击查看天气观测和预报。

如需切换地图:点击带黑十字的绿色按钮放大地图;点击带横线的绿色按钮缩小地图;或者点击绿色箭头查看邻近地区的地图。


METAR-TAF: